Time,TemperatureF,DewpointF,PressureIn,WindDirection,WindDirectionDegrees,WindSpeedMPH,WindSpeedGustMPH,Humidity,HourlyPrecipIn,Conditions,Clouds,dailyrainin,SoftwareType,DateUTC
2013-02-15 00:12:00,34.3,33.0,30.07,ESE,115,0.0,0.0,93,0.00,,,0.00,weatherlink.com 1.10,2013-02-15 05:12:00,
2013-02-15 00:27:00,33.5,32.0,30.07,ESE,116,0.0,0.0,94,0.00,,,0.00,weatherlink.com 1.10,2013-02-15 05:27:00,
2013-02-15 00:42:00,33.9,32.0,30.09,ESE,116,0.0,1.0,94,0.00,,,0.00,weatherlink.com 1.10,2013-02-15 05:42:00,
2013-02-15 00:57:00,33.9,32.0,30.08,ESE,115,0.0,0.0,94,0.00,,,0.00,weatherlink.com 1.10,2013-02-15 05:57:00,
2013-02-15 01:12:00,33.8,32.0,30.08,ESE,115,0.0,0.0,94,0.00,,,0.00,weatherlink.com 1.10,2013-02-15 06:12:00,
2013-02-15 01:27:00,33.7,33.0,30.08,ESE,116,0.0,0.0,95,0.00,,,0.00,weatherlink.com 1.10,2013-02-15 06:27:00,
2013-02-15 01:42:00,33.3,32.0,30.08,ESE,116,0.0,0.0,95,0.00,,,0.00,weatherlink.com 1.10,2013-02-15 06:42:00,
2013-02-15 01:57:00,33.1,32.0,30.07,ESE,116,0.0,0.0,95,0.00,,,0.00,weatherlink.com 1.10,2013-02-15 06:57:00,
2013-02-15 02:12:00,32.4,31.0,30.07,ESE,116,0.0,0.0,95,0.00,,,0.00,weatherlink.com 1.10,2013-02-15 07:12:00,
2013-02-15 02:27:00,32.5,31.0,30.07,ESE,116,0.0,0.0,95,0.00,,,0.00,weatherlink.com 1.10,2013-02-15 07:27:00,
2013-02-15 02:42:00,32.4,31.0,30.06,ESE,116,0.0,0.0,95,0.00,,,0.00,weatherlink.com 1.10,2013-02-15 07:42:00,
2013-02-15 02:57:00,32.2,31.0,30.06,ESE,115,0.0,0.0,95,0.00,,,0.00,weatherlink.com 1.10,2013-02-15 07:57:00,
2013-02-15 03:12:00,31.6,30.0,30.05,ESE,116,0.0,0.0,95,0.00,,,0.00,weatherlink.com 1.10,2013-02-15 08:12:00,
2013-02-15 03:27:00,31.8,31.0,30.05,ESE,115,0.0,0.0,96,0.00,,,0.00,weatherlink.com 1.10,2013-02-15 08:27:00,
2013-02-15 03:42:00,31.6,31.0,30.05,ESE,116,0.0,0.0,96,0.00,,,0.00,weatherlink.com 1.10,2013-02-15 08:42:00,
2013-02-15 03:57:00,31.4,30.0,30.05,ESE,115,0.0,0.0,96,0.00,,,0.00,weatherlink.com 1.10,2013-02-15 08:57:00,
2013-02-15 04:12:00,31.4,30.0,30.06,ESE,115,0.0,0.0,96,0.00,,,0.00,weatherlink.com 1.10,2013-02-15 09:12:00,
2013-02-15 04:27:00,31.4,30.0,30.06,ESE,115,0.0,0.0,96,0.00,,,0.00,weatherlink.com 1.10,2013-02-15 09:27:00,
2013-02-15 04:42:00,31.1,30.0,30.06,ESE,115,0.0,0.0,96,0.00,,,0.00,weatherlink.com 1.10,2013-02-15 09:42:00,
2013-02-15 04:57:00,30.5,30.0,30.06,ESE,116,0.0,0.0,96,0.00,,,0.00,weatherlink.com 1.10,2013-02-15 09:57:00,
2013-02-15 05:12:00,30.3,29.0,30.06,ESE,116,0.0,0.0,96,0.00,,,0.00,weatherlink.com 1.10,2013-02-15 10:12:00,
2013-02-15 05:27:00,30.5,30.0,30.06,ESE,116,0.0,0.0,96,0.00,,,0.00,weatherlink.com 1.10,2013-02-15 10:27:00,
2013-02-15 05:42:00,30.5,30.0,30.06,ESE,116,0.0,0.0,96,0.00,,,0.00,weatherlink.com 1.10,2013-02-15 10:42:00,
2013-02-15 05:57:00,30.7,30.0,30.06,ESE,115,0.0,0.0,96,0.00,,,0.00,weatherlink.com 1.10,2013-02-15 10:57:00,
2013-02-15 06:12:00,30.5,30.0,30.07,ESE,115,0.0,0.0,96,0.00,,,0.00,weatherlink.com 1.10,2013-02-15 11:12:00,
2013-02-15 06:27:00,30.2,29.0,30.07,ESE,115,0.0,0.0,96,0.00,,,0.00,weatherlink.com 1.10,2013-02-15 11:27:00,
2013-02-15 06:42:00,30.4,29.0,30.07,ESE,116,0.0,0.0,96,0.00,,,0.00,weatherlink.com 1.10,2013-02-15 11:42:00,
2013-02-15 06:58:00,29.9,29.0,30.07,ESE,116,0.0,0.0,96,0.00,,,0.00,weatherlink.com 1.10,2013-02-15 11:58:00,
2013-02-15 07:13:00,29.7,29.0,30.08,ESE,116,0.0,0.0,96,0.00,,,0.00,weatherlink.com 1.10,2013-02-15 12:13:00,
2013-02-15 07:28:00,30.3,30.0,30.08,ESE,116,0.0,0.0,97,0.00,,,0.00,weatherlink.com 1.10,2013-02-15 12:28:00,
2013-02-15 07:43:00,31.2,31.0,30.09,ESE,116,0.0,1.0,97,0.00,,,0.00,weatherlink.com 1.10,2013-02-15 12:43:00,
2013-02-15 07:58:00,32.4,32.0,30.09,ESE,116,0.0,0.0,97,0.00,,,0.00,weatherlink.com 1.10,2013-02-15 12:58:00,
2013-02-15 08:13:00,33.3,33.0,30.09,ESE,116,0.0,0.0,97,0.00,,,0.00,weatherlink.com 1.10,2013-02-15 13:13:00,
2013-02-15 08:28:00,35.5,35.0,30.10,ESE,116,0.0,0.0,97,0.00,,,0.00,weatherlink.com 1.10,2013-02-15 13:28:00,
2013-02-15 08:43:00,39.6,39.0,30.10,ESE,115,0.0,0.0,98,0.00,,,0.00,weatherlink.com 1.10,2013-02-15 13:43:00,
2013-02-15 08:58:00,41.3,41.0,30.10,SSE,149,0.0,1.0,97,0.00,,,0.00,weatherlink.com 1.10,2013-02-15 13:58:00,
2013-02-15 09:13:00,44.3,42.0,30.09,SSE,149,0.0,0.0,90,0.00,,,0.00,weatherlink.com 1.10,2013-02-15 14:13:00,
2013-02-15 09:28:00,47.3,42.0,30.10,WSW,242,0.0,1.0,81,0.00,,,0.00,weatherlink.com 1.10,2013-02-15 14:28:00,
2013-02-15 09:43:00,49.0,40.0,30.09,NW,321,0.0,3.0,72,0.00,,,0.00,weatherlink.com 1.10,2013-02-15 14:43:00,
2013-02-15 09:58:00,50.9,41.0,30.09,WNW,300,0.0,2.0,70,0.00,,,0.00,weatherlink.com 1.10,2013-02-15 14:58:00,
2013-02-15 10:13:00,53.0,42.0,30.09,NNW,343,0.0,3.0,66,0.00,,,0.00,weatherlink.com 1.10,2013-02-15 15:13:00,
2013-02-15 10:28:00,54.9,41.0,30.09,NNW,328,0.0,2.0,59,0.00,,,0.00,weatherlink.com 1.10,2013-02-15 15:28:00,
2013-02-15 10:43:00,56.7,41.0,30.09,NNW,331,0.0,2.0,57,0.00,,,0.00,weatherlink.com 1.10,2013-02-15 15:43:00,
2013-02-15 10:58:00,57.8,39.0,30.08,SE,140,0.0,3.0,50,0.00,,,0.00,weatherlink.com 1.10,2013-02-15 15:58:00,
2013-02-15 11:13:00,58.0,39.0,30.08,ESE,115,0.0,3.0,49,0.00,,,0.00,weatherlink.com 1.10,2013-02-15 16:13:00,
2013-02-15 11:28:00,58.9,38.0,30.07,SW,232,0.0,3.0,46,0.00,,,0.00,weatherlink.com 1.10,2013-02-15 16:28:00,
2013-02-15 11:43:00,59.1,38.0,30.07,WNW,296,1.0,4.0,45,0.00,,,0.00,weatherlink.com 1.10,2013-02-15 16:43:00,
2013-02-15 11:58:00,59.8,37.0,30.06,East,86,2.0,7.0,43,0.00,,,0.00,weatherlink.com 1.10,2013-02-15 16:58:00,
2013-02-15 12:13:00,59.8,36.0,30.05,South,180,2.0,5.0,41,0.00,,,0.00,weatherlink.com 1.10,2013-02-15 17:13:00,
2013-02-15 12:28:00,60.6,36.0,30.04,ENE,78,2.0,3.0,40,0.00,,,0.00,weatherlink.com 1.10,2013-02-15 17:28:00,
2013-02-15 12:44:00,60.6,34.0,30.03,SSE,147,1.0,3.0,37,0.00,,,0.00,weatherlink.com 1.10,2013-02-15 17:44:00,
2013-02-15 12:59:00,60.9,34.0,30.03,West,259,0.0,7.0,37,0.00,,,0.00,weatherlink.com 1.10,2013-02-15 17:59:00,
2013-02-15 13:14:00,61.7,35.0,30.02,SSE,165,4.0,5.0,37,0.00,,,0.00,weatherlink.com 1.10,2013-02-15 18:14:00,
2013-02-15 13:29:00,61.6,34.0,30.02,West,273,0.0,7.0,36,0.00,,,0.00,weatherlink.com 1.10,2013-02-15 18:29:00,
2013-02-15 13:44:00,61.7,35.0,30.01,South,172,0.0,4.0,37,0.00,,,0.00,weatherlink.com 1.10,2013-02-15 18:44:00,
2013-02-15 13:59:00,62.0,32.0,30.00,West,278,1.0,8.0,33,0.00,,,0.00,weatherlink.com 1.10,2013-02-15 18:59:00,
2013-02-15 14:14:00,62.8,32.0,29.99,NW,316,5.0,6.0,32,0.00,,,0.00,weatherlink.com 1.10,2013-02-15 19:14:00,
2013-02-15 14:29:00,61.7,33.0,29.98,SE,130,3.0,8.0,34,0.00,,,0.00,weatherlink.com 1.10,2013-02-15 19:29:00,
2013-02-15 14:44:00,61.4,33.0,29.98,SE,124,3.0,7.0,34,0.00,,,0.00,weatherlink.com 1.10,2013-02-15 19:44:00,
2013-02-15 14:59:00,61.7,34.0,29.97,West,269,0.0,9.0,36,0.00,,,0.00,weatherlink.com 1.10,2013-02-15 19:59:00,
2013-02-15 15:14:00,61.3,33.0,29.96,SE,143,3.0,4.0,35,0.00,,,0.00,weatherlink.com 1.10,2013-02-15 20:14:00,
2013-02-15 15:29:00,61.0,34.0,29.96,NW,326,3.0,7.0,36,0.00,,,0.00,weatherlink.com 1.10,2013-02-15 20:29:00,
2013-02-15 15:44:00,60.4,33.0,29.95,SSW,207,0.0,6.0,36,0.00,,,0.00,weatherlink.com 1.10,2013-02-15 20:44:00,
2013-02-15 15:59:00,60.1,33.0,29.95,ESE,108,3.0,5.0,36,0.00,,,0.00,weatherlink.com 1.10,2013-02-15 20:59:00,
2013-02-15 16:14:00,60.0,33.0,29.95,SSW,198,1.0,3.0,37,0.00,,,0.00,weatherlink.com 1.10,2013-02-15 21:14:00,
2013-02-15 16:29:00,60.0,34.0,29.95,NNW,335,3.0,3.0,38,0.00,,,0.00,weatherlink.com 1.10,2013-02-15 21:29:00,
2013-02-15 16:44:00,60.2,34.0,29.95,SE,141,0.0,4.0,37,0.00,,,0.00,weatherlink.com 1.10,2013-02-15 21:44:00,
2013-02-15 16:59:00,59.7,33.0,29.95,SSE,158,3.0,7.0,37,0.00,,,0.00,weatherlink.com 1.10,2013-02-15 21:59:00,
2013-02-15 17:14:00,59.7,34.0,29.95,SSW,203,0.0,1.0,38,0.00,,,0.00,weatherlink.com 1.10,2013-02-15 22:14:00,
2013-02-15 17:29:00,58.5,34.0,29.94,West,269,0.0,2.0,40,0.00,,,0.00,weatherlink.com 1.10,2013-02-15 22:29:00,
2013-02-15 17:44:00,57.2,35.0,29.94,SSE,148,0.0,0.0,44,0.00,,,0.00,weatherlink.com 1.10,2013-02-15 22:44:00,
2013-02-15 17:59:00,54.7,37.0,29.94,SSE,148,0.0,0.0,51,0.00,,,0.00,weatherlink.com 1.10,2013-02-15 22:59:00,
2013-02-15 18:14:00,52.5,37.0,29.94,SSE,148,0.0,0.0,55,0.00,,,0.00,weatherlink.com 1.10,2013-02-15 23:14:00,
2013-02-15 18:29:00,50.8,37.0,29.94,SSE,148,0.0,0.0,59,0.00,,,0.00,weatherlink.com 1.10,2013-02-15 23:29:00,
2013-02-15 18:44:00,49.2,37.0,29.94,SSE,148,0.0,0.0,62,0.00,,,0.00,weatherlink.com 1.10,2013-02-15 23:44:00,
2013-02-15 18:59:00,48.0,37.0,29.94,SSE,148,0.0,0.0,65,0.00,,,0.00,weatherlink.com 1.10,2013-02-15 23:59:00,
2013-02-15 19:14:00,46.9,36.0,29.95,SSE,148,0.0,0.0,67,0.00,,,0.00,weatherlink.com 1.10,2013-02-16 00:14:00,
2013-02-15 19:29:00,46.0,36.0,29.95,SSE,148,0.0,0.0,68,0.00,,,0.00,weatherlink.com 1.10,2013-02-16 00:29:00,
2013-02-15 19:44:00,45.2,36.0,29.95,SSE,148,0.0,0.0,69,0.00,,,0.00,weatherlink.com 1.10,2013-02-16 00:44:00,
2013-02-15 19:59:00,44.6,36.0,29.96,SSE,148,0.0,0.0,72,0.00,,,0.00,weatherlink.com 1.10,2013-02-16 00:59:00,
2013-02-15 20:14:00,44.2,36.0,29.96,SSE,148,0.0,0.0,73,0.00,,,0.00,weatherlink.com 1.10,2013-02-16 01:14:00,
2013-02-15 20:29:00,44.0,36.0,29.96,SSE,148,0.0,0.0,73,0.00,,,0.00,weatherlink.com 1.10,2013-02-16 01:29:00,
2013-02-15 20:44:00,43.4,36.0,29.96,SSE,148,0.0,0.0,75,0.00,,,0.00,weatherlink.com 1.10,2013-02-16 01:44:00,
2013-02-15 20:59:00,43.1,36.0,29.96,SSE,148,0.0,0.0,75,0.00,,,0.00,weatherlink.com 1.10,2013-02-16 01:59:00,
2013-02-15 21:29:00,42.5,35.0,29.96,SSE,148,0.0,0.0,76,0.00,,,0.00,weatherlink.com 1.10,2013-02-16 02:29:00,
2013-02-15 21:44:00,41.8,35.0,29.96,SSE,148,0.0,0.0,78,0.00,,,0.00,weatherlink.com 1.10,2013-02-16 02:44:00,
2013-02-15 21:59:00,41.3,36.0,29.96,SSE,148,0.0,0.0,80,0.00,,,0.00,weatherlink.com 1.10,2013-02-16 02:59:00,
2013-02-15 22:14:00,41.0,35.0,29.96,SSE,148,0.0,0.0,80,0.00,,,0.00,weatherlink.com 1.10,2013-02-16 03:14:00,
2013-02-15 22:29:00,40.4,35.0,29.95,SSE,148,0.0,0.0,82,0.00,,,0.00,weatherlink.com 1.10,2013-02-16 03:29:00,
2013-02-15 22:44:00,40.6,36.0,29.95,South,174,0.0,2.0,82,0.00,,,0.00,weatherlink.com 1.10,2013-02-16 03:44:00,
2013-02-15 23:00:00,40.3,35.0,29.95,South,174,0.0,0.0,82,0.00,,,0.00,weatherlink.com 1.10,2013-02-16 04:00:00,
2013-02-15 23:15:00,43.1,36.0,29.97,WNW,294,2.0,5.0,77,0.00,,,0.00,weatherlink.com 1.10,2013-02-16 04:15:00,
2013-02-15 23:30:00,45.9,37.0,29.96,NNW,346,2.0,2.0,71,0.00,,,0.00,weatherlink.com 1.10,2013-02-16 04:30:00,
2013-02-15 23:45:00,46.2,37.0,29.97,WNW,286,0.0,3.0,71,0.00,,,0.00,weatherlink.com 1.10,2013-02-16 04:45:00,